createdAt,value
2023-01-09T00:00:33.901Z,32.50
2023-01-09T00:05:57.545Z,30.00
2023-01-09T00:11:01.447Z,31.20
2023-01-09T00:16:06.465Z,30.90
2023-01-09T00:21:11.593Z,31.90
2023-01-09T00:26:19.586Z,32.80
2023-01-09T00:31:25.538Z,29.10
2023-01-09T00:36:32.161Z,29.50
2023-01-09T00:41:44.833Z,29.40
2023-01-09T00:46:56.525Z,28.90
2023-01-09T00:52:00.888Z,30.00
2023-01-09T00:57:04.704Z,30.70
2023-01-09T01:02:09.270Z,37.10
2023-01-09T01:07:31.834Z,33.70
2023-01-09T01:12:35.409Z,34.10
2023-01-09T01:17:40.939Z,33.50
2023-01-09T01:22:48.221Z,34.10
2023-01-09T01:27:52.043Z,32.70
2023-01-09T01:32:56.764Z,35.30
2023-01-09T01:38:01.434Z,36.30
2023-01-09T01:43:05.134Z,33.20
2023-01-09T01:48:16.199Z,35.10
2023-01-09T01:53:37.505Z,40.00
2023-01-09T01:58:48.622Z,32.50
2023-01-09T02:03:55.712Z,31.40
2023-01-09T02:09:02.496Z,32.40
2023-01-09T02:14:06.697Z,35.10
2023-01-09T02:19:24.975Z,35.00
2023-01-09T02:24:56.975Z,29.50
2023-01-09T02:30:29.998Z,32.30
2023-01-09T02:40:54.252Z,29.30
2023-01-09T02:45:58.691Z,28.20
2023-01-09T02:51:25.690Z,30.50
2023-01-09T02:56:52.822Z,30.00
2023-01-09T03:02:47.213Z,30.80
2023-01-09T03:13:04.238Z,24.70
2023-01-09T03:18:09.580Z,27.50
2023-01-09T03:23:16.243Z,28.20
2023-01-09T03:28:27.467Z,28.20
2023-01-09T03:33:31.298Z,29.60
2023-01-09T03:38:35.664Z,27.30
2023-01-09T03:43:39.539Z,25.40
2023-01-09T03:48:46.270Z,25.50
2023-01-09T03:53:50.077Z,21.10
2023-01-09T03:58:54.054Z,23.70
2023-01-09T04:04:00.227Z,24.90
2023-01-09T04:09:03.971Z,24.10
2023-01-09T04:14:08.197Z,22.50
2023-01-09T04:19:12.048Z,24.00
2023-01-09T04:24:15.685Z,24.20
2023-01-09T04:29:20.290Z,23.30
2023-01-09T04:34:25.992Z,22.10
2023-01-09T04:39:29.802Z,22.20
2023-01-09T04:44:33.471Z,23.10
2023-01-09T04:49:37.758Z,25.50
2023-01-09T04:54:41.418Z,24.50
2023-01-09T04:59:45.147Z,22.00
2023-01-09T05:04:48.816Z,20.70
2023-01-09T05:09:52.625Z,20.20
2023-01-09T05:14:58.293Z,25.10
2023-01-09T05:20:02.057Z,22.80
2023-01-09T05:25:07.649Z,22.80
2023-01-09T05:30:13.949Z,21.60
2023-01-09T05:35:17.971Z,22.30
2023-01-09T05:40:24.823Z,22.20
2023-01-09T05:45:32.640Z,20.60
2023-01-09T05:50:37.892Z,20.20
2023-01-09T05:55:42.070Z,20.60
2023-01-09T06:00:45.989Z,23.10
2023-01-09T06:05:49.894Z,21.00
2023-01-09T06:10:53.652Z,21.10
2023-01-09T06:16:00.289Z,20.50
2023-01-09T06:21:05.009Z,21.20
2023-01-09T06:26:09.323Z,23.60
2023-01-09T06:31:13.911Z,24.60
2023-01-09T06:36:17.858Z,24.20
2023-01-09T06:41:21.725Z,31.10
2023-01-09T06:46:25.573Z,35.20
2023-01-09T06:51:29.572Z,35.40
2023-01-09T06:56:34.523Z,23.90
2023-01-09T07:01:40.223Z,23.00
2023-01-09T07:06:44.549Z,21.60
2023-01-09T07:11:49.066Z,32.50
2023-01-09T07:16:52.845Z,22.90
2023-01-09T07:21:56.833Z,22.10
2023-01-09T07:27:00.476Z,20.90
2023-01-09T07:32:04.967Z,27.20
2023-01-09T07:37:11.428Z,29.40
2023-01-09T07:42:18.131Z,29.20
2023-01-09T07:47:21.912Z,31.50
2023-01-09T07:52:26.336Z,36.00
2023-01-09T07:57:33.433Z,26.70
2023-01-09T08:02:37.580Z,25.90
2023-01-09T08:07:45.090Z,26.70
2023-01-09T08:12:49.860Z,22.30
2023-01-09T08:17:53.751Z,24.90
2023-01-09T08:22:57.621Z,25.00
2023-01-09T08:28:01.647Z,23.30
2023-01-09T08:33:05.883Z,22.40
2023-01-09T08:38:10.959Z,22.50
2023-01-09T08:43:33.983Z,23.30
2023-01-09T08:48:37.635Z,20.80
2023-01-09T08:53:41.278Z,22.20
2023-01-09T08:58:45.437Z,25.50
2023-01-09T09:03:49.153Z,23.60
2023-01-09T09:08:52.807Z,24.60
2023-01-09T09:13:58.110Z,24.30
2023-01-09T09:19:01.865Z,23.90
2023-01-09T09:24:05.747Z,24.70
2023-01-09T09:29:09.783Z,24.90
2023-01-09T09:34:13.789Z,23.90
2023-01-09T09:39:17.622Z,23.20
2023-01-09T09:44:58.838Z,24.50
2023-01-09T09:50:48.149Z,25.40
2023-01-09T09:55:52.282Z,24.40
2023-01-09T10:00:56.816Z,25.70
2023-01-09T10:06:01.373Z,26.90
2023-01-09T10:11:05.676Z,25.30
2023-01-09T10:16:26.984Z,25.50
2023-01-09T10:22:19.155Z,25.10
2023-01-09T10:27:45.723Z,26.40
2023-01-09T10:33:10.028Z,27.00
2023-01-09T10:38:19.882Z,27.10
2023-01-09T10:43:57.969Z,26.50
2023-01-09T10:49:06.074Z,23.80
2023-01-09T10:54:22.637Z,21.90
2023-01-09T10:59:42.590Z,23.00
2023-01-09T11:04:45.039Z,21.20
2023-01-09T11:10:12.199Z,20.50
2023-01-09T11:15:27.560Z,20.20
2023-01-09T11:20:31.414Z,22.50
2023-01-09T11:25:40.949Z,21.30
2023-01-09T11:31:00.961Z,20.70
2023-01-09T11:36:25.647Z,19.40
2023-01-09T11:41:34.822Z,17.30
2023-01-09T11:46:42.789Z,15.80
2023-01-09T11:51:46.760Z,14.40
2023-01-09T11:56:51.510Z,14.20
2023-01-09T12:02:22.490Z,13.70
2023-01-09T12:08:07.166Z,15.40
2023-01-09T12:13:26.495Z,13.30
2023-01-09T12:19:01.260Z,14.40
2023-01-09T12:24:39.879Z,14.20
2023-01-09T12:30:01.942Z,13.30
2023-01-09T12:35:42.302Z,12.70
2023-01-09T12:41:15.111Z,13.70
2023-01-09T12:46:20.646Z,10.60
2023-01-09T12:51:50.657Z,11.10
2023-01-09T12:57:39.215Z,10.00
2023-01-09T13:02:47.555Z,9.40
2023-01-09T13:08:16.327Z,8.90
2023-01-09T13:13:35.031Z,9.70
2023-01-09T13:19:07.127Z,8.50
2023-01-09T13:24:34.230Z,5.70
2023-01-09T13:29:47.805Z,5.00
2023-01-09T13:34:54.244Z,5.30
2023-01-09T13:40:04.724Z,5.10
2023-01-09T13:45:28.695Z,5.60
2023-01-09T13:50:32.427Z,5.70
2023-01-09T13:55:36.532Z,5.30
2023-01-09T14:01:19.226Z,5.50
2023-01-09T14:11:31.319Z,6.90
2023-01-09T14:16:36.307Z,6.20
2023-01-09T14:21:45.569Z,6.80
2023-01-09T14:26:56.303Z,6.30
2023-01-09T14:32:43.233Z,5.60
2023-01-09T14:37:56.413Z,5.80
2023-01-09T14:43:12.717Z,6.00
2023-01-09T14:48:17.272Z,6.10
2023-01-09T14:53:30.379Z,6.20
2023-01-09T14:58:37.609Z,6.10
2023-01-09T15:03:44.754Z,6.10
2023-01-09T15:09:02.075Z,5.70
2023-01-09T15:14:06.810Z,6.40
2023-01-09T15:19:13.397Z,6.00
2023-01-09T15:24:30.753Z,5.40
2023-01-09T15:29:34.776Z,5.00
2023-01-09T15:34:39.995Z,5.20
2023-01-09T15:39:43.743Z,5.20
2023-01-09T15:44:50.037Z,5.50
2023-01-09T15:49:55.475Z,5.60
2023-01-09T15:54:59.170Z,5.40
2023-01-09T16:00:42.975Z,5.50
2023-01-09T16:06:06.235Z,5.70
2023-01-09T16:11:19.832Z,5.80
2023-01-09T16:16:29.945Z,5.60
2023-01-09T16:21:37.236Z,5.50
2023-01-09T16:26:40.951Z,5.80
2023-01-09T16:31:44.934Z,5.20
2023-01-09T16:36:49.153Z,6.20
2023-01-09T16:42:11.903Z,5.70
2023-01-09T16:47:15.522Z,5.60
2023-01-09T16:52:19.170Z,5.70
2023-01-09T16:57:22.860Z,5.80
2023-01-09T17:02:27.009Z,6.20
2023-01-09T17:07:31.623Z,6.30
2023-01-09T17:12:35.483Z,6.40
2023-01-09T17:17:39.243Z,7.00
2023-01-09T17:22:43.753Z,7.70
2023-01-09T17:28:06.080Z,7.10
2023-01-09T17:33:20.057Z,8.90
2023-01-09T17:38:23.961Z,9.30
2023-01-09T17:43:27.637Z,9.70
2023-01-09T17:48:32.624Z,8.80
2023-01-09T17:53:36.781Z,8.60
2023-01-09T17:58:40.832Z,7.60
2023-01-09T18:03:47.392Z,6.50
2023-01-09T18:08:51.243Z,6.70
2023-01-09T18:13:55.103Z,6.70
2023-01-09T18:18:59.848Z,6.40
2023-01-09T18:24:04.597Z,7.10
2023-01-09T18:29:09.773Z,6.90
2023-01-09T18:34:14.330Z,6.80
2023-01-09T18:39:19.133Z,6.50
2023-01-09T18:44:25.063Z,6.70
2023-01-09T18:49:30.940Z,7.60
2023-01-09T18:54:35.527Z,7.70
2023-01-09T18:59:40.082Z,7.90
2023-01-09T19:04:45.895Z,7.40
2023-01-09T19:09:50.980Z,7.10
2023-01-09T19:14:56.865Z,7.60
2023-01-09T19:20:00.884Z,7.80
2023-01-09T19:25:06.025Z,7.90
2023-01-09T19:30:11.610Z,9.00
2023-01-09T19:35:20.826Z,9.60
2023-01-09T19:40:28.859Z,9.70
2023-01-09T19:45:53.868Z,10.40
2023-01-09T19:51:07.741Z,10.60
2023-01-09T19:56:19.704Z,9.90
2023-01-09T20:01:35.925Z,13.80
2023-01-09T20:06:48.721Z,12.70
2023-01-09T20:11:55.730Z,20.60
2023-01-09T20:17:07.361Z,20.40
2023-01-09T20:22:12.965Z,19.60
2023-01-09T20:27:34.776Z,19.10
2023-01-09T20:32:51.207Z,16.70
2023-01-09T20:37:55.329Z,13.60
2023-01-09T20:43:00.379Z,14.40
2023-01-09T20:48:05.690Z,16.80
2023-01-09T20:53:10.731Z,14.10
2023-01-09T20:58:15.389Z,16.40
2023-01-09T21:03:20.020Z,14.00
2023-01-09T21:08:24.519Z,10.80
2023-01-09T21:13:28.853Z,11.70
2023-01-09T21:18:33.520Z,14.50
2023-01-09T21:23:39.432Z,14.80
2023-01-09T21:28:50.285Z,21.10
2023-01-09T21:33:54.885Z,27.40
2023-01-09T21:38:59.460Z,44.10
2023-01-09T21:44:42.291Z,43.30
2023-01-09T21:50:13.032Z,34.90
2023-01-09T21:55:17.090Z,38.40
2023-01-09T22:00:22.966Z,37.30
2023-01-09T22:05:27.493Z,32.70
2023-01-09T22:10:31.355Z,33.60
2023-01-09T22:15:35.540Z,34.60
2023-01-09T22:20:39.351Z,30.90
2023-01-09T22:25:43.123Z,31.10
2023-01-09T22:30:47.260Z,29.80
2023-01-09T22:35:51.298Z,29.60
2023-01-09T22:40:54.908Z,30.80
2023-01-09T22:46:09.085Z,35.60
2023-01-09T22:51:17.231Z,35.60
2023-01-09T22:56:22.992Z,30.10
2023-01-09T23:01:28.035Z,27.20
2023-01-09T23:06:34.459Z,26.30
2023-01-09T23:11:57.061Z,27.70
2023-01-09T23:17:00.898Z,26.70
2023-01-09T23:22:05.544Z,27.90
2023-01-09T23:27:09.656Z,27.20
2023-01-09T23:32:14.464Z,29.20
2023-01-09T23:37:18.413Z,30.00
2023-01-09T23:42:41.003Z,27.30
2023-01-09T23:52:48.899Z,24.60
2023-01-09T23:57:56.125Z,27.20
